Time;durP1;ratioP1;P1;durP2;ratioP2;P2;SDS_P1;SDS_P2;PMS_P1;PMS_P2;Temp;Humidity;BMP_temperature;BMP_pressure;BME280_temperature;BME280_humidity;BME280_pressure;Samples;Min_cycle;Max_cycle;Signal;HPM_P1;HPM_P2
2023/10/23 00:00:17;;;;;;;;;;;;;;;7.13;100.00;100544.94;4993422;28;19925;-83
2023/10/23 00:02:45;;;;;;;;;;;;;;;7.12;100.00;100544.09;4985195;28;19932;-82
2023/10/23 00:05:13;;;;;;;;;;;;;;;7.08;100.00;100545.69;4991722;28;19921;-81
2023/10/23 00:07:46;;;;;;;;;;;;;;;7.13;100.00;100550.34;4987058;28;19932;-84
2023/10/23 00:10:13;;;;;;;;;;;;;;;7.12;100.00;100548.69;4989665;28;19921;-82
2023/10/23 00:12:47;;;;;;;;;;;;;;;7.09;100.00;100547.31;4986338;28;19929;-83
2023/10/23 00:15:22;;;;;;;;;;;;;;;7.07;100.00;100545.94;4995522;28;19928;-84
2023/10/23 00:17:54;;;;;;;;;;;;;;;7.06;100.00;100553.25;4967117;28;19945;-81
2023/10/23 00:20:27;;;;;;;;;;;;;;;6.96;100.00;100545.06;4995245;28;19921;-83
2023/10/23 00:23:00;;;;;;;;;;;;;;;6.95;100.00;100549.66;4967967;28;19921;-82
2023/10/23 00:25:33;;;;;;;;;;;;;;;6.90;100.00;100556.94;4994182;28;19922;-82
2023/10/23 00:28:06;;;;;;;;;;;;;;;6.89;100.00;100561.53;4981308;28;19933;-83
2023/10/23 00:30:40;;;;;;;;;;;;;;;6.96;100.00;100561.28;4993029;28;19922;-82
2023/10/23 00:33:08;;;;;;;;;;;;;;;6.84;100.00;100566.09;4991767;28;19929;-82
2023/10/23 00:35:41;;;;;;;;;;;;;;;6.86;100.00;100563.91;4994791;28;19928;-82
2023/10/23 00:38:14;;;;;;;;;;;;;;;6.84;100.00;100566.88;4985393;28;19922;-82
2023/10/23 00:40:42;;;;;;;;;;;;;;;6.78;100.00;100560.63;4958186;28;19929;-82
2023/10/23 00:43:13;;;;;;;;;;;;;;;6.75;100.00;100569.25;4992787;28;19921;-84
2023/10/23 00:45:50;;;;;;;;;;;;;;;6.72;100.00;100571.66;4993008;28;20889;-82
2023/10/23 00:48:20;;;;;;;;;;;;;;;6.69;100.00;100567.56;4987769;28;19928;-82
2023/10/23 00:50:49;;;;;;;;;;;;;;;6.66;100.00;100565.38;4992019;28;19926;-82
2023/10/23 00:53:24;;;;;;;;;;;;;;;6.64;100.00;100575.63;4994276;28;19929;-83
2023/10/23 00:55:59;;;;;;;;;;;;;;;6.57;100.00;100570.44;4976231;28;19933;-83
2023/10/23 00:58:33;;;;;;;;;;;;;;;6.44;100.00;100570.84;4994002;28;19925;-82
2023/10/23 01:01:04;;;;;;;;;;;;;;;6.55;100.00;100572.56;4994229;28;19921;-83
2023/10/23 01:03:37;;;;;;;;;;;;;;;6.51;100.00;100573.34;4985427;28;19926;-82
2023/10/23 01:06:05;;;;;;;;;;;;;;;6.51;100.00;100570.66;4992532;28;19921;-82
2023/10/23 01:08:33;;;;;;;;;;;;;;;6.50;100.00;100569.81;4992571;28;19922;-83
2023/10/23 01:11:01;;;;;;;;;;;;;;;6.55;100.00;100572.56;4992739;28;19921;-83
2023/10/23 01:13:29;;;;;;;;;;;;;;;6.57;100.00;100573.16;4992133;28;19922;-82
2023/10/23 01:16:04;;;;;;;;;;;;;;;6.56;100.00;100570.69;4994181;28;19929;-83
2023/10/23 01:18:37;;;;;;;;;;;;;;;6.59;100.00;100576.41;4992344;28;20275;-83
2023/10/23 01:21:11;;;;;;;;;;;;;;;6.58;100.00;100569.34;4993284;28;19922;-83
2023/10/23 01:23:42;;;;;;;;;;;;;;;6.59;100.00;100568.28;4984837;28;19922;-85
2023/10/23 01:26:16;;;;;;;;;;;;;;;6.55;100.00;100577.97;4987496;28;19922;-82
2023/10/23 01:28:49;;;;;;;;;;;;;;;6.59;100.00;100575.59;4989398;28;19929;-84
2023/10/23 01:31:17;;;;;;;;;;;;;;;6.63;100.00;100584.84;4992815;28;19928;-82
2023/10/23 01:33:45;;;;;;;;;;;;;;;6.62;100.00;100577.78;4992691;28;19921;-83
2023/10/23 01:36:13;;;;;;;;;;;;;;;6.61;100.00;100581.56;4994352;28;21373;-83
2023/10/23 01:38:46;;;;;;;;;;;;;;;6.59;100.00;100579.09;4992614;28;20282;-83
2023/10/23 01:41:20;;;;;;;;;;;;;;;6.55;100.00;100586.09;4993900;28;19928;-85
2023/10/23 01:43:48;;;;;;;;;;;;;;;6.50;100.00;100585.22;4993469;28;19933;-83
2023/10/23 01:46:16;;;;;;;;;;;;;;;6.53;100.00;100592.81;4975730;28;20366;-83
2023/10/23 01:48:49;;;;;;;;;;;;;;;6.50;100.00;100593.34;4993491;28;20683;-84
2023/10/23 01:51:17;;;;;;;;;;;;;;;6.56;100.00;100584.19;4991640;28;19922;-83
2023/10/23 01:53:44;;;;;;;;;;;;;;;6.49;100.00;100592.53;4991430;28;19921;-82
2023/10/23 01:56:17;;;;;;;;;;;;;;;6.47;100.00;100597.38;4975717;28;19932;-84
2023/10/23 01:58:47;;;;;;;;;;;;;;;6.55;100.00;100598.81;4990532;28;20415;-83
2023/10/23 02:01:20;;;;;;;;;;;;;;;6.51;100.00;100594.97;4995656;28;19921;-84
2023/10/23 02:03:48;;;;;;;;;;;;;;;6.62;100.00;100594.81;4989605;28;19936;-84
2023/10/23 02:06:16;;;;;;;;;;;;;;;6.61;100.00;100595.88;4975916;28;19929;-84
2023/10/23 02:08:49;;;;;;;;;;;;;;;6.58;100.00;100595.59;4998811;28;19952;-84
2023/10/23 02:11:17;;;;;;;;;;;;;;;6.58;100.00;100599.09;4993120;28;19945;-83
2023/10/23 02:13:46;;;;;;;;;;;;;;;6.54;100.00;100606.09;4992510;28;19922;-82
2023/10/23 02:16:19;;;;;;;;;;;;;;;6.58;100.00;100601.81;4991591;28;19926;-84
2023/10/23 02:18:47;;;;;;;;;;;;;;;6.58;100.00;100609.09;4990168;28;19922;-83
2023/10/23 02:21:20;;;;;;;;;;;;;;;6.64;100.00;100606.19;4975622;28;20306;-84
2023/10/23 02:23:48;;;;;;;;;;;;;;;6.73;100.00;100611.16;4991378;28;19921;-84
2023/10/23 02:26:16;;;;;;;;;;;;;;;6.73;100.00;100613.84;4996856;28;19921;-83
2023/10/23 02:28:44;;;;;;;;;;;;;;;6.65;100.00;100617.81;4995902;28;20310;-82
2023/10/23 02:31:14;;;;;;;;;;;;;;;6.62;100.00;100616.44;4992751;28;19929;-85
2023/10/23 02:33:42;;;;;;;;;;;;;;;6.59;100.00;100622.38;4998537;28;19926;-83
2023/10/23 02:36:10;;;;;;;;;;;;;;;6.65;100.00;100620.53;4995609;28;19922;-82
2023/10/23 02:38:38;;;;;;;;;;;;;;;6.61;100.00;100619.41;4995504;28;19928;-84
2023/10/23 02:41:06;;;;;;;;;;;;;;;6.57;100.00;100612.88;4990211;28;19922;-83
2023/10/23 02:43:34;;;;;;;;;;;;;;;6.53;100.00;100611.75;4995334;28;20374;-82
2023/10/23 02:46:07;;;;;;;;;;;;;;;6.51;100.00;100620.13;4988964;28;19937;-83
2023/10/23 02:48:41;;;;;;;;;;;;;;;6.45;100.00;100624.66;4995733;28;19925;-82
2023/10/23 02:51:09;;;;;;;;;;;;;;;6.42;100.00;100622.47;4994018;28;19932;-84
2023/10/23 02:53:42;;;;;;;;;;;;;;;6.46;100.00;100622.75;4995797;28;19953;-84
2023/10/23 02:56:15;;;;;;;;;;;;;;;6.47;100.00;100624.41;4989399;28;19991;-82
2023/10/23 02:58:48;;;;;;;;;;;;;;;6.50;100.00;100633.91;4993724;28;19938;-83
2023/10/23 03:01:23;;;;;;;;;;;;;;;6.43;100.00;100629.47;4994756;28;19925;-83
2023/10/23 03:03:52;;;;;;;;;;;;;;;6.48;100.00;100631.44;4991786;28;19977;-83
2023/10/23 03:06:21;;;;;;;;;;;;;;;6.45;100.00;100634.66;4978334;28;19922;-83
2023/10/23 03:08:49;;;;;;;;;;;;;;;6.58;100.00;100630.75;4978960;28;19921;-82
2023/10/23 03:11:17;;;;;;;;;;;;;;;6.50;100.00;100623.88;4994940;28;20606;-84
2023/10/23 03:13:45;;;;;;;;;;;;;;;6.51;100.00;100639.03;4992605;28;19928;-83
2023/10/23 03:16:18;;;;;;;;;;;;;;;6.51;100.00;100640.94;4994038;28;19922;-83
2023/10/23 03:18:52;;;;;;;;;;;;;;;6.46;100.00;100639.81;4993911;28;19922;-83
2023/10/23 03:21:20;;;;;;;;;;;;;;;6.54;100.00;100633.13;4975483;28;20390;-82
2023/10/23 03:23:48;;;;;;;;;;;;;;;6.53;100.00;100631.50;4978678;28;19922;-83
2023/10/23 03:26:21;;;;;;;;;;;;;;;6.48;100.00;100636.84;4995996;28;19932;-83
2023/10/23 03:28:54;;;;;;;;;;;;;;;6.43;100.00;100648.41;4994355;28;19922;-82
2023/10/23 03:31:22;;;;;;;;;;;;;;;6.42;100.00;100649.50;4995966;28;19922;-82
2023/10/23 03:33:51;;;;;;;;;;;;;;;6.51;100.00;100657.16;4994856;28;20306;-84
2023/10/23 03:36:26;;;;;;;;;;;;;;;6.48;100.00;100650.38;4994810;28;19922;-85
2023/10/23 03:38:59;;;;;;;;;;;;;;;6.46;100.00;100655.19;4994554;28;19938;-83
2023/10/23 03:41:31;;;;;;;;;;;;;;;6.49;100.00;100662.81;4990285;28;19926;-83
2023/10/23 03:44:05;;;;;;;;;;;;;;;6.41;100.00;100653.25;4993093;28;19929;-82
2023/10/23 03:46:33;;;;;;;;;;;;;;;6.43;100.00;100655.72;4998382;28;19928;-83
2023/10/23 03:49:06;;;;;;;;;;;;;;;6.32;100.00;100660.16;4995411;28;19921;-83
2023/10/23 03:51:35;;;;;;;;;;;;;;;6.29;100.00;100650.69;4990790;28;19922;-82
2023/10/23 03:54:08;;;;;;;;;;;;;;;6.29;100.00;100656.09;4994699;28;19921;-83
2023/10/23 03:56:41;;;;;;;;;;;;;;;6.32;100.00;100648.56;4996188;28;20653;-83
2023/10/23 03:59:09;;;;;;;;;;;;;;;6.24;100.00;100652.50;4995375;28;19944;-82
2023/10/23 04:01:37;;;;;;;;;;;;;;;6.34;100.00;100649.94;4992953;28;19925;-82
2023/10/23 04:04:10;;;;;;;;;;;;;;;6.23;100.00;100657.09;4994066;28;19922;-82
2023/10/23 04:06:40;;;;;;;;;;;;;;;6.19;100.00;100657.88;4993761;28;19922;-83
2023/10/23 04:09:08;;;;;;;;;;;;;;;6.17;100.00;100658.09;4991786;28;19922;-84
2023/10/23 04:11:37;;;;;;;;;;;;;;;6.14;100.00;100669.41;4976164;28;19921;-83
2023/10/23 04:14:05;;;;;;;;;;;;;;;6.13;100.00;100659.66;4993897;28;20287;-83
2023/10/23 04:16:33;;;;;;;;;;;;;;;6.11;100.00;100656.41;4993758;28;20402;-84
2023/10/23 04:19:01;;;;;;;;;;;;;;;6.10;100.00;100663.72;4994153;28;20313;-84
2023/10/23 04:21:29;;;;;;;;;;;;;;;6.08;100.00;100662.31;4993690;28;19921;-84
2023/10/23 04:24:03;;;;;;;;;;;;;;;6.05;100.00;100668.19;4984677;28;19925;-83
2023/10/23 04:26:36;;;;;;;;;;;;;;;6.04;100.00;100669.28;4979062;28;19922;-84
2023/10/23 04:29:09;;;;;;;;;;;;;;;6.05;100.00;100670.91;4989916;28;19929;-83
2023/10/23 04:31:42;;;;;;;;;;;;;;;5.98;100.00;100667.56;4994993;28;20286;-83
2023/10/23 04:34:15;;;;;;;;;;;;;;;5.94;100.00;100673.44;4976915;28;19929;-83
2023/10/23 04:36:48;;;;;;;;;;;;;;;5.95;100.00;100668.84;4993161;28;19921;-83
2023/10/23 04:39:22;;;;;;;;;;;;;;;5.94;100.00;100672.63;4970963;28;19929;-84
2023/10/23 04:41:55;;;;;;;;;;;;;;;5.95;100.00;100671.56;4995489;28;19928;-85
2023/10/23 04:44:28;;;;;;;;;;;;;;;5.86;100.00;100673.88;4992072;28;19925;-83
2023/10/23 04:46:56;;;;;;;;;;;;;;;5.88;100.00;100679.03;4990804;28;20398;-85
2023/10/23 04:49:24;;;;;;;;;;;;;;;5.84;100.00;100675.19;5001572;28;19955;-86
2023/10/23 04:51:52;;;;;;;;;;;;;;;5.84;100.00;100673.31;4993276;28;19921;-84
2023/10/23 04:54:20;;;;;;;;;;;;;;;5.78;100.00;100674.28;4974291;28;20421;-84
2023/10/23 04:56:50;;;;;;;;;;;;;;;5.77;100.00;100675.34;4993891;28;20405;-83
2023/10/23 04:59:23;;;;;;;;;;;;;;;5.73;100.00;100680.44;4986662;28;19933;-84
2023/10/23 05:01:50;;;;;;;;;;;;;;;5.73;100.00;100680.44;4992435;28;19921;-84
2023/10/23 05:04:18;;;;;;;;;;;;;;;5.78;100.00;100682.41;4991059;28;19929;-84
2023/10/23 05:06:46;;;;;;;;;;;;;;;5.76;100.00;100685.34;4992481;28;19922;-84
2023/10/23 05:09:15;;;;;;;;;;;;;;;5.70;100.00;100691.72;4992570;28;19933;-83
2023/10/23 05:11:43;;;;;;;;;;;;;;;5.71;100.00;100682.56;4997549;28;19925;-86
2023/10/23 05:14:17;;;;;;;;;;;;;;;5.74;100.00;100686.66;4975953;28;19928;-84
2023/10/23 05:16:46;;;;;;;;;;;;;;;5.69;100.00;100687.41;4981542;28;19932;-85
2023/10/23 05:19:14;;;;;;;;;;;;;;;5.65;100.00;100688.13;5005266;28;19922;-85
2023/10/23 05:21:42;;;;;;;;;;;;;;;5.63;100.00;100691.06;4996284;28;19926;-84
2023/10/23 05:24:15;;;;;;;;;;;;;;;5.59;100.00;100685.38;4985746;28;20289;-84
2023/10/23 05:26:43;;;;;;;;;;;;;;;5.58;100.00;100694.53;4978671;28;19929;-83
2023/10/23 05:29:11;;;;;;;;;;;;;;;5.57;100.00;100700.16;4992646;28;19929;-83
2023/10/23 05:31:40;;;;;;;;;;;;;;;5.55;100.00;100703.13;4976328;28;19922;-83
2023/10/23 05:34:08;;;;;;;;;;;;;;;5.53;100.00;100713.34;4998998;28;19930;-84
2023/10/23 05:36:41;;;;;;;;;;;;;;;5.53;100.00;100721.44;4998743;28;19921;-85
2023/10/23 05:39:14;;;;;;;;;;;;;;;5.37;100.00;100717.69;4986839;28;19921;-85
2023/10/23 05:41:42;;;;;;;;;;;;;;;5.42;100.00;100728.53;4992225;28;19925;-84
2023/10/23 05:44:10;;;;;;;;;;;;;;;5.40;100.00;100727.97;4989044;28;19929;-83
2023/10/23 05:46:44;;;;;;;;;;;;;;;5.40;100.00;100730.69;4992374;28;19932;-84
2023/10/23 05:49:12;;;;;;;;;;;;;;;5.40;100.00;100736.06;4990598;28;20711;-82
2023/10/23 05:51:40;;;;;;;;;;;;;;;5.43;100.00;100732.88;4995282;28;19929;-84
2023/10/23 05:54:09;;;;;;;;;;;;;;;5.49;100.00;100735.66;4989242;28;19944;-83
2023/10/23 05:56:37;;;;;;;;;;;;;;;5.49;100.00;100735.66;4996044;28;19921;-84
2023/10/23 05:59:05;;;;;;;;;;;;;;;5.47;100.00;100732.38;4994415;28;19928;-84
2023/10/23 06:01:33;;;;;;;;;;;;;;;5.41;100.00;100737.72;4971613;28;19926;-83
2023/10/23 06:04:04;;;;;;;;;;;;;;;5.42;100.00;100735.81;4972722;28;19933;-83
2023/10/23 06:06:32;;;;;;;;;;;;;;;5.40;100.00;100733.38;4990327;28;19925;-84
2023/10/23 06:09:00;;;;;;;;;;;;;;;5.34;100.00;100737.03;4994664;28;19922;-83
2023/10/23 06:11:32;;;;;;;;;;;;;;;5.32;100.00;100735.63;4978124;28;19929;-84
2023/10/23 06:14:00;;;;;;;;;;;;;;;5.39;100.00;100742.53;4993693;28;20286;-83
2023/10/23 06:16:33;;;;;;;;;;;;;;;5.38;100.00;100743.56;4991911;28;19929;-84
2023/10/23 06:19:08;;;;;;;;;;;;;;;5.37;100.00;100751.91;4989150;28;19921;-82
2023/10/23 06:21:41;;;;;;;;;;;;;;;5.32;100.00;100752.66;4993884;28;20393;-82
2023/10/23 06:24:09;;;;;;;;;;;;;;;5.34;100.00;100757.81;4978993;28;19926;-81
2023/10/23 06:26:37;;;;;;;;;;;;;;;5.36;100.00;100751.13;4974933;28;20382;-85
2023/10/23 06:29:05;;;;;;;;;;;;;;;5.45;100.00;100763.16;4994469;28;19928;-84
2023/10/23 06:31:38;;;;;;;;;;;;;;;5.47;100.00;100767.47;4976146;28;19929;-84
2023/10/23 06:34:07;;;;;;;;;;;;;;;5.60;100.00;100769.88;4973179;28;19929;-83
2023/10/23 06:36:40;;;;;;;;;;;;;;;5.54;100.00;100777.06;4990934;28;19929;-83
2023/10/23 06:39:08;;;;;;;;;;;;;;;5.67;100.00;100783.22;4990636;28;19922;-81
2023/10/23 06:41:40;;;;;;;;;;;;;;;5.65;100.00;100783.47;5000436;28;19921;-83
2023/10/23 06:44:19;;;;;;;;;;;;;;;5.62;100.00;100781.22;4994504;28;20251;-83
2023/10/23 06:46:52;;;;;;;;;;;;;;;5.68;100.00;100782.97;4994222;28;19929;-82
2023/10/23 06:49:22;;;;;;;;;;;;;;;5.69;100.00;100786.47;4990708;28;20834;-81
2023/10/23 06:51:49;;;;;;;;;;;;;;;5.73;100.00;100784.91;4992304;28;19933;-81
2023/10/23 06:54:19;;;;;;;;;;;;;;;5.70;100.00;100785.41;4990225;28;19921;-82
2023/10/23 06:56:47;;;;;;;;;;;;;;;5.75;100.00;100789.00;4990996;28;19953;-81
2023/10/23 06:59:15;;;;;;;;;;;;;;;5.76;100.00;100787.97;4991305;28;19922;-82
2023/10/23 07:01:43;;;;;;;;;;;;;;;5.72;100.00;100783.31;4992034;28;19925;-82
2023/10/23 07:04:11;;;;;;;;;;;;;;;5.78;100.00;100785.00;4990489;28;19928;-81
2023/10/23 07:06:45;;;;;;;;;;;;;;;5.78;100.00;100785.81;4991426;28;19925;-81
2023/10/23 07:09:13;;;;;;;;;;;;;;;5.80;100.00;100785.59;4989841;28;19937;-80
2023/10/23 07:11:47;;;;;;;;;;;;;;;5.84;100.00;100777.81;4989741;28;19921;-82
2023/10/23 07:14:20;;;;;;;;;;;;;;;5.85;100.00;100780.25;4978458;28;20370;-80
2023/10/23 07:16:48;;;;;;;;;;;;;;;5.86;100.00;100789.19;4994753;28;19929;-82
2023/10/23 07:19:16;;;;;;;;;;;;;;;5.90;100.00;100793.03;4994134;28;19926;-81
2023/10/23 07:21:50;;;;;;;;;;;;;;;5.95;100.00;100788.53;4994531;28;19922;-82
2023/10/23 07:24:18;;;;;;;;;;;;;;;5.99;100.00;100788.06;4996222;28;20002;-84
2023/10/23 07:26:46;;;;;;;;;;;;;;;6.06;100.00;100789.56;4993587;28;20390;-80
2023/10/23 07:29:14;;;;;;;;;;;;;;;6.09;100.00;100786.34;4976852;28;19960;-81
2023/10/23 07:31:42;;;;;;;;;;;;;;;6.17;100.00;100789.69;4977836;28;19938;-81
2023/10/23 07:34:10;;;;;;;;;;;;;;;6.20;100.00;100792.72;4995151;28;19922;-81
2023/10/23 07:36:43;;;;;;;;;;;;;;;6.23;100.00;100794.94;4993930;28;19921;-81
2023/10/23 07:39:12;;;;;;;;;;;;;;;6.24;100.00;100793.88;4996388;28;19945;-82
2023/10/23 07:41:45;;;;;;;;;;;;;;;6.27;100.00;100803.34;4975023;28;19932;-82
2023/10/23 07:44:20;;;;;;;;;;;;;;;6.30;100.00;100805.56;4978894;28;19922;-82
2023/10/23 07:46:48;;;;;;;;;;;;;;;6.28;100.00;100811.22;4990545;28;20303;-82
2023/10/23 07:49:16;;;;;;;;;;;;;;;6.26;100.00;100810.66;4994679;28;19922;-82
2023/10/23 07:51:44;;;;;;;;;;;;;;;6.26;100.00;100818.75;4957195;28;19949;-82
2023/10/23 07:54:14;;;;;;;;;;;;;;;6.18;100.00;100818.38;4967203;28;20394;-80
2023/10/23 07:56:46;;;;;;;;;;;;;;;6.22;100.00;100820.31;4979452;28;19936;-83
2023/10/23 07:59:15;;;;;;;;;;;;;;;6.22;100.00;100825.72;4965349;28;19936;-82
2023/10/23 08:01:43;;;;;;;;;;;;;;;6.24;100.00;100828.16;4971162;28;20539;-81
2023/10/23 08:04:11;;;;;;;;;;;;;;;6.30;100.00;100828.00;4960505;28;19930;-84
2023/10/23 08:06:39;;;;;;;;;;;;;;;6.29;100.00;100825.56;4961828;28;19941;-82
2023/10/23 08:09:07;;;;;;;;;;;;;;;6.34;100.00;100820.22;4959403;28;19930;-82
2023/10/23 08:11:37;;;;;;;;;;;;;;;6.40;100.00;100821.94;4967267;28;19964;-82
2023/10/23 08:14:05;;;;;;;;;;;;;;;6.44;100.00;100819.56;4960209;28;20499;-84
2023/10/23 08:16:38;;;;;;;;;;;;;;;6.50;100.00;100825.84;4970841;28;20601;-83
2023/10/23 08:19:06;;;;;;;;;;;;;;;6.56;100.00;100822.13;4958361;28;19930;-83
2023/10/23 08:21:39;;;;;;;;;;;;;;;6.63;100.00;100828.22;4974576;28;19986;-82
2023/10/23 08:24:08;;;;;;;;;;;;;;;6.66;100.00;100826.88;4967557;28;20495;-80
2023/10/23 08:26:42;;;;;;;;;;;;;;;6.79;100.00;100831.91;4970331;28;20804;-79
2023/10/23 08:29:15;;;;;;;;;;;;;;;6.94;100.00;100825.88;4968096;28;19937;-83
2023/10/23 08:31:43;;;;;;;;;;;;;;;6.93;100.00;100821.53;4970382;28;19930;-83
2023/10/23 08:34:11;;;;;;;;;;;;;;;6.97;100.00;100822.66;4977256;28;19953;-83
2023/10/23 08:36:38;;;;;;;;;;;;;;;7.12;100.00;100819.34;4966696;28;19929;-83
2023/10/23 08:39:11;;;;;;;;;;;;;;;7.15;100.00;100825.06;4953647;28;19930;-84
2023/10/23 08:41:40;;;;;;;;;;;;;;;7.21;100.00;100823.22;4955233;28;19929;-83
2023/10/23 08:44:14;;;;;;;;;;;;;;;7.33;100.00;100825.78;4974753;28;19930;-83
2023/10/23 08:46:42;;;;;;;;;;;;;;;7.31;100.00;100823.34;4972015;28;19953;-84
2023/10/23 08:49:15;;;;;;;;;;;;;;;7.49;100.00;100824.88;4963744;28;19940;-84
2023/10/23 08:51:46;;;;;;;;;;;;;;;7.43;100.00;100833.19;4966064;28;19937;-85
2023/10/23 08:54:17;;;;;;;;;;;;;;;7.52;100.00;100833.56;4969512;28;20294;-84
2023/10/23 08:56:53;;;;;;;;;;;;;;;7.71;100.00;100832.13;4952224;28;19925;-84
2023/10/23 08:59:22;;;;;;;;;;;;;;;7.80;100.00;100827.88;4971428;28;19922;-85
2023/10/23 09:01:55;;;;;;;;;;;;;;;7.87;100.00;100830.38;4970952;28;20322;-86
2023/10/23 09:04:23;;;;;;;;;;;;;;;7.91;100.00;100826.09;4976192;28;20378;-84
2023/10/23 09:06:52;;;;;;;;;;;;;;;8.07;100.00;100827.00;4955283;28;20759;-86
2023/10/23 09:09:20;;;;;;;;;;;;;;;8.15;100.00;100831.94;4973008;28;19930;-81
2023/10/23 09:11:53;;;;;;;;;;;;;;;8.24;100.00;100834.19;4976298;28;19930;-83
2023/10/23 09:14:26;;;;;;;;;;;;;;;8.21;100.00;100830.09;4970749;28;19929;-83
2023/10/23 09:16:55;;;;;;;;;;;;;;;8.26;100.00;100840.16;4970740;28;19936;-85
2023/10/23 09:19:27;;;;;;;;;;;;;;;8.45;100.00;100840.56;4967023;28;21299;-85
2023/10/23 09:21:56;;;;;;;;;;;;;;;8.47;100.00;100838.44;4971832;28;19930;-81
2023/10/23 09:24:24;;;;;;;;;;;;;;;8.61;100.00;100836.06;4972237;28;19929;-82
2023/10/23 09:26:53;;;;;;;;;;;;;;;8.70;100.00;100837.22;4973650;28;19930;-83
2023/10/23 09:29:24;;;;;;;;;;;;;;;8.69;100.00;100841.00;4970434;28;20572;-84
2023/10/23 09:31:54;;;;;;;;;;;;;;;8.73;100.00;100839.41;4952702;28;20598;-82
2023/10/23 09:34:22;;;;;;;;;;;;;;;8.75;100.00;100836.41;4971159;28;19996;-81
2023/10/23 09:36:51;;;;;;;;;;;;;;;8.89;100.00;100832.13;4972860;28;19930;-82
2023/10/23 09:39:20;;;;;;;;;;;;;;;8.90;100.00;100838.41;4952577;28;19937;-82
2023/10/23 09:41:48;;;;;;;;;;;;;;;9.00;100.00;100844.69;4971018;28;20833;-82
2023/10/23 09:44:24;;;;;;;;;;;;;;;8.92;100.00;100837.06;4958716;28;19925;-84
2023/10/23 09:46:59;;;;;;;;;;;;;;;8.89;100.00;100828.63;4969196;28;19930;-85
2023/10/23 09:49:33;;;;;;;;;;;;;;;8.97;100.00;100828.09;4957282;28;19929;-81
2023/10/23 09:52:02;;;;;;;;;;;;;;;8.93;100.00;100835.94;4970729;28;20596;-83
2023/10/23 09:54:31;;;;;;;;;;;;;;;8.95;100.00;100836.53;4968614;28;19930;-84
2023/10/23 09:57:06;;;;;;;;;;;;;;;9.08;100.00;100842.53;4968412;28;19929;-84
2023/10/23 09:59:42;;;;;;;;;;;;;;;9.34;100.00;100841.53;4971706;28;19930;-84
2023/10/23 10:02:14;;;;;;;;;;;;;;;9.22;100.00;100849.09;4969262;28;20471;-81
2023/10/23 10:04:47;;;;;;;;;;;;;;;9.30;100.00;100850.50;4968837;28;20433;-82
2023/10/23 10:07:23;;;;;;;;;;;;;;;9.36;100.00;100849.41;4972427;28;19922;-82
2023/10/23 10:09:52;;;;;;;;;;;;;;;9.39;100.00;100843.47;4976922;28;19930;-82
2023/10/23 10:12:25;;;;;;;;;;;;;;;9.46;100.00;100854.88;4971180;28;19937;-81
2023/10/23 10:14:54;;;;;;;;;;;;;;;9.44;100.00;100848.09;4968812;28;20603;-82
2023/10/23 10:17:29;;;;;;;;;;;;;;;9.47;100.00;100848.38;4971103;28;20511;-84
2023/10/23 10:20:00;;;;;;;;;;;;;;;9.57;100.00;100849.47;4962607;28;19930;-81
2023/10/23 10:22:29;;;;;;;;;;;;;;;9.47;100.00;100861.97;4968795;28;20606;-84
2023/10/23 10:24:58;;;;;;;;;;;;;;;9.53;100.00;100850.00;4965991;28;19936;-84
2023/10/23 10:27:31;;;;;;;;;;;;;;;9.62;100.00;100854.91;4964046;28;19930;-82
2023/10/23 10:30:05;;;;;;;;;;;;;;;9.71;100.00;100856.03;4973265;28;19930;-82
2023/10/23 10:32:35;;;;;;;;;;;;;;;9.65;100.00;100852.47;4965467;28;19929;-85
2023/10/23 10:35:25;;;;;;;;;;;;;;;9.69;100.00;100850.84;4966801;28;19930;-84
2023/10/23 10:37:59;;;;;;;;;;;;;;;9.73;100.00;100847.59;4967512;28;21336;-82
2023/10/23 10:40:27;;;;;;;;;;;;;;;9.77;100.00;100851.41;4966645;28;19941;-85
2023/10/23 10:42:55;;;;;;;;;;;;;;;9.77;100.00;100837.81;4956548;28;19925;-85
2023/10/23 10:45:30;;;;;;;;;;;;;;;9.78;100.00;100836.75;4969680;28;19940;-87
2023/10/23 10:48:00;;;;;;;;;;;;;;;9.76;100.00;100830.75;4969002;28;19929;-82
2023/10/23 10:50:32;;;;;;;;;;;;;;;9.85;100.00;100832.66;4974591;28;19932;-85
2023/10/23 10:53:06;;;;;;;;;;;;;;;10.11;100.00;100832.66;4950311;28;21286;-83
2023/10/23 10:55:39;;;;;;;;;;;;;;;9.93;100.00;100827.75;4954424;28;19936;-84
2023/10/23 10:58:12;;;;;;;;;;;;;;;9.90;100.00;100831.81;4972944;28;19933;-83
2023/10/23 11:00:45;;;;;;;;;;;;;;;9.87;100.00;100819.63;4951179;28;19929;-83
2023/10/23 11:03:15;;;;;;;;;;;;;;;9.90;100.00;100820.16;4941628;28;19930;-85
2023/10/23 11:05:48;;;;;;;;;;;;;;;9.97;100.00;100821.53;4970504;28;19929;-85
2023/10/23 11:08:21;;;;;;;;;;;;;;;10.06;100.00;100821.78;4973993;28;19926;-84
2023/10/23 11:10:49;;;;;;;;;;;;;;;10.08;100.00;100818.78;4972495;28;20298;-84
2023/10/23 11:13:17;;;;;;;;;;;;;;;10.26;100.00;100810.06;4975537;28;19933;-83
2023/10/23 11:15:45;;;;;;;;;;;;;;;10.25;100.00;100811.16;4968047;28;19934;-85
2023/10/23 11:18:20;;;;;;;;;;;;;;;10.26;100.00;100815.50;4975300;28;19930;-83
2023/10/23 11:20:48;;;;;;;;;;;;;;;10.15;100.00;100816.59;4974011;28;19925;-84
2023/10/23 11:23:21;;;;;;;;;;;;;;;10.26;100.00;100815.50;4971064;28;19932;-83
2023/10/23 11:25:50;;;;;;;;;;;;;;;10.19;100.00;100821.22;4972734;28;19929;-82
2023/10/23 11:28:18;;;;;;;;;;;;;;;10.33;100.00;100824.19;4970241;28;20583;-84
2023/10/23 11:30:55;;;;;;;;;;;;;;;10.26;100.00;100820.94;4968490;28;20405;-85
2023/10/23 11:33:24;;;;;;;;;;;;;;;10.20;100.00;100830.19;4962396;28;19929;-84
2023/10/23 11:35:52;;;;;;;;;;;;;;;10.21;100.00;100835.34;4974979;28;19936;-82
2023/10/23 11:38:27;;;;;;;;;;;;;;;10.30;100.00;100827.47;4971951;28;19929;-87
2023/10/23 11:41:00;;;;;;;;;;;;;;;10.37;100.00;100827.19;4958796;28;19930;-84
2023/10/23 11:43:33;;;;;;;;;;;;;;;10.38;100.00;100824.22;4975897;28;19929;-83
2023/10/23 11:46:01;;;;;;;;;;;;;;;10.41;100.00;100830.19;4959986;28;19930;-82
2023/10/23 11:48:31;;;;;;;;;;;;;;;10.37;100.00;100828.03;4968111;28;19926;-85
2023/10/23 11:50:59;;;;;;;;;;;;;;;10.42;100.00;100823.69;4956684;28;20367;-83
2023/10/23 11:53:32;;;;;;;;;;;;;;;10.53;100.00;100823.34;4948144;28;19929;-86
2023/10/23 11:56:06;;;;;;;;;;;;;;;10.46;100.00;100820.13;4964346;28;19937;-85
2023/10/23 11:58:34;;;;;;;;;;;;;;;10.36;100.00;100823.69;4970287;28;19992;-85
2023/10/23 12:01:07;;;;;;;;;;;;;;;10.44;100.00;100827.75;4969152;28;19930;-80
2023/10/23 12:03:37;;;;;;;;;;;;;;;10.39;100.00;100825.03;4966606;28;19941;-86
2023/10/23 12:06:05;;;;;;;;;;;;;;;10.40;100.00;100825.84;4970024;28;19936;-83
2023/10/23 12:08:38;;;;;;;;;;;;;;;10.50;100.00;100820.41;4969767;28;19930;-86
2023/10/23 12:11:06;;;;;;;;;;;;;;;10.49;100.00;100825.00;4966525;28;19929;-87
2023/10/23 12:13:35;;;;;;;;;;;;;;;10.47;100.00;100832.63;4971107;28;19929;-84
2023/10/23 12:16:09;;;;;;;;;;;;;;;10.48;100.00;100828.84;4966766;28;19929;-86
2023/10/23 12:18:38;;;;;;;;;;;;;;;10.54;100.00;100824.19;4974002;28;20404;-83
2023/10/23 12:21:12;;;;;;;;;;;;;;;10.58;100.00;100819.00;4970306;28;20007;-85
2023/10/23 12:23:40;;;;;;;;;;;;;;;10.49;100.00;100816.84;4970312;28;19937;-86
2023/10/23 12:26:08;;;;;;;;;;;;;;;10.48;100.00;100814.41;4971614;28;19937;-81
2023/10/23 12:28:41;;;;;;;;;;;;;;;10.38;100.00;100805.19;4968759;28;19930;-87
2023/10/23 12:31:09;;;;;;;;;;;;;;;10.45;100.00;100815.75;4967935;28;19940;-84
2023/10/23 12:33:37;;;;;;;;;;;;;;;10.45;100.00;100815.75;4970007;28;19930;-82
2023/10/23 12:36:06;;;;;;;;;;;;;;;10.44;100.00;100813.31;4973831;28;19937;-83
2023/10/23 12:38:34;;;;;;;;;;;;;;;10.49;100.00;100807.88;4973382;28;19930;-85
2023/10/23 12:41:02;;;;;;;;;;;;;;;10.56;100.00;100808.38;4970165;28;19929;-82
2023/10/23 12:43:35;;;;;;;;;;;;;;;10.68;100.00;100805.38;4967434;28;19937;-85
2023/10/23 12:46:09;;;;;;;;;;;;;;;10.75;100.00;100802.34;4973293;28;19930;-83
2023/10/23 12:48:41;;;;;;;;;;;;;;;10.72;100.00;100795.56;4971966;28;19930;-85
2023/10/23 12:51:10;;;;;;;;;;;;;;;10.66;100.00;100802.94;4968967;28;19929;-85